sensor_id;sensor_type;location;lat;lon;timestamp;temperature;humidity
1716;DHT22;855;48.824;9.220;2023-03-01T00:01:28;1.20;80.00
1716;DHT22;855;48.824;9.220;2023-03-01T00:03:56;1.00;79.90
1716;DHT22;855;48.824;9.220;2023-03-01T00:06:23;0.90;80.30
1716;DHT22;855;48.824;9.220;2023-03-01T00:08:50;0.90;80.50
1716;DHT22;855;48.824;9.220;2023-03-01T00:11:21;0.90;80.50
1716;DHT22;855;48.824;9.220;2023-03-01T00:13:50;0.90;80.40
1716;DHT22;855;48.824;9.220;2023-03-01T00:16:19;1.00;80.00
1716;DHT22;855;48.824;9.220;2023-03-01T00:18:46;1.10;79.90
1716;DHT22;855;48.824;9.220;2023-03-01T00:21:13;1.00;79.90
1716;DHT22;855;48.824;9.220;2023-03-01T00:23:40;1.10;79.70
1716;DHT22;855;48.824;9.220;2023-03-01T00:26:09;1.10;79.60
1716;DHT22;855;48.824;9.220;2023-03-01T00:28:37;1.10;79.70
1716;DHT22;855;48.824;9.220;2023-03-01T00:31:05;1.20;80.10
1716;DHT22;855;48.824;9.220;2023-03-01T00:33:32;1.30;79.90
1716;DHT22;855;48.824;9.220;2023-03-01T00:35:59;1.40;79.60
1716;DHT22;855;48.824;9.220;2023-03-01T00:38:26;1.40;79.50
1716;DHT22;855;48.824;9.220;2023-03-01T00:40:53;1.40;79.60
1716;DHT22;855;48.824;9.220;2023-03-01T00:43:19;1.30;79.90
1716;DHT22;855;48.824;9.220;2023-03-01T00:45:48;1.30;80.00
1716;DHT22;855;48.824;9.220;2023-03-01T00:48:15;1.20;80.10
1716;DHT22;855;48.824;9.220;2023-03-01T00:50:41;1.20;80.50
1716;DHT22;855;48.824;9.220;2023-03-01T00:53:08;1.10;80.80
1716;DHT22;855;48.824;9.220;2023-03-01T00:55:36;1.10;80.80
1716;DHT22;855;48.824;9.220;2023-03-01T00:58:03;1.10;80.80
1716;DHT22;855;48.824;9.220;2023-03-01T01:00:30;1.00;80.90
1716;DHT22;855;48.824;9.220;2023-03-01T01:02:58;1.00;81.10
1716;DHT22;855;48.824;9.220;2023-03-01T01:05:25;0.80;81.20
1716;DHT22;855;48.824;9.220;2023-03-01T01:07:52;0.70;82.40
1716;DHT22;855;48.824;9.220;2023-03-01T01:10:19;0.60;83.60
1716;DHT22;855;48.824;9.220;2023-03-01T01:12:45;0.60;84.00
1716;DHT22;855;48.824;9.220;2023-03-01T01:15:12;0.50;84.50
1716;DHT22;855;48.824;9.220;2023-03-01T01:17:42;0.40;85.40
1716;DHT22;855;48.824;9.220;2023-03-01T01:20:11;0.30;85.30
1716;DHT22;855;48.824;9.220;2023-03-01T01:22:38;0.20;84.60
1716;DHT22;855;48.824;9.220;2023-03-01T01:25:06;0.20;84.20
1716;DHT22;855;48.824;9.220;2023-03-01T01:27:33;0.30;84.00
1716;DHT22;855;48.824;9.220;2023-03-01T01:30:00;0.30;83.80
1716;DHT22;855;48.824;9.220;2023-03-01T01:32:26;0.20;83.80
1716;DHT22;855;48.824;9.220;2023-03-01T01:34:53;0.30;83.80
1716;DHT22;855;48.824;9.220;2023-03-01T01:37:22;0.30;83.70
1716;DHT22;855;48.824;9.220;2023-03-01T01:39:56;0.30;83.60
1716;DHT22;855;48.824;9.220;2023-03-01T01:42:23;0.30;83.60
1716;DHT22;855;48.824;9.220;2023-03-01T01:47:50;0.20;84.00
1716;DHT22;855;48.824;9.220;2023-03-01T01:50:18;0.20;84.00
1716;DHT22;855;48.824;9.220;2023-03-01T01:52:48;0.20;83.80
1716;DHT22;855;48.824;9.220;2023-03-01T01:55:18;0.20;83.80
1716;DHT22;855;48.824;9.220;2023-03-01T01:57:49;0.30;83.80
1716;DHT22;855;48.824;9.220;2023-03-01T02:02:48;0.60;83.40
1716;DHT22;855;48.824;9.220;2023-03-01T02:05:22;0.70;82.70
1716;DHT22;855;48.824;9.220;2023-03-01T02:07:52;0.90;82.10
1716;DHT22;855;48.824;9.220;2023-03-01T02:10:19;1.00;81.60
1716;DHT22;855;48.824;9.220;2023-03-01T02:12:46;1.00;80.80
1716;DHT22;855;48.824;9.220;2023-03-01T02:15:13;1.00;80.80
1716;DHT22;855;48.824;9.220;2023-03-01T02:17:41;1.00;80.80
1716;DHT22;855;48.824;9.220;2023-03-01T02:20:16;1.00;80.80
1716;DHT22;855;48.824;9.220;2023-03-01T02:22:46;0.90;81.10
1716;DHT22;855;48.824;9.220;2023-03-01T02:25:24;0.80;81.50
1716;DHT22;855;48.824;9.220;2023-03-01T02:27:57;0.80;82.00
1716;DHT22;855;48.824;9.220;2023-03-01T02:30:27;0.80;82.00
1716;DHT22;855;48.824;9.220;2023-03-01T02:32:56;0.80;82.00
1716;DHT22;855;48.824;9.220;2023-03-01T02:35:29;1.00;82.00
1716;DHT22;855;48.824;9.220;2023-03-01T02:37:58;1.00;81.90
1716;DHT22;855;48.824;9.220;2023-03-01T02:40:28;1.00;81.70
1716;DHT22;855;48.824;9.220;2023-03-01T02:42:57;1.00;81.60
1716;DHT22;855;48.824;9.220;2023-03-01T02:45:26;1.00;81.90
1716;DHT22;855;48.824;9.220;2023-03-01T02:47:53;1.00;81.90
1716;DHT22;855;48.824;9.220;2023-03-01T02:50:34;1.00;82.10
1716;DHT22;855;48.824;9.220;2023-03-01T02:53:09;0.90;82.40
1716;DHT22;855;48.824;9.220;2023-03-01T02:55:37;0.90;82.30
1716;DHT22;855;48.824;9.220;2023-03-01T02:58:05;1.00;82.30
1716;DHT22;855;48.824;9.220;2023-03-01T03:00:37;1.00;82.10
1716;DHT22;855;48.824;9.220;2023-03-01T03:03:06;1.00;82.10
1716;DHT22;855;48.824;9.220;2023-03-01T03:05:33;1.10;82.00
1716;DHT22;855;48.824;9.220;2023-03-01T03:08:02;1.10;81.90
1716;DHT22;855;48.824;9.220;2023-03-01T03:10:31;1.20;81.50
1716;DHT22;855;48.824;9.220;2023-03-01T03:12:59;1.40;81.20
1716;DHT22;855;48.824;9.220;2023-03-01T03:15:28;1.50;80.50
1716;DHT22;855;48.824;9.220;2023-03-01T03:17:57;1.40;79.30
1716;DHT22;855;48.824;9.220;2023-03-01T03:20:26;1.50;79.50
1716;DHT22;855;48.824;9.220;2023-03-01T03:22:55;1.40;79.10
1716;DHT22;855;48.824;9.220;2023-03-01T03:25:24;1.40;79.50
1716;DHT22;855;48.824;9.220;2023-03-01T03:27:52;1.50;79.20
1716;DHT22;855;48.824;9.220;2023-03-01T03:30:23;1.50;79.20
1716;DHT22;855;48.824;9.220;2023-03-01T03:32:50;1.30;79.70
1716;DHT22;855;48.824;9.220;2023-03-01T03:35:21;1.20;80.00
1716;DHT22;855;48.824;9.220;2023-03-01T03:37:48;1.20;80.30
1716;DHT22;855;48.824;9.220;2023-03-01T03:40:33;1.20;80.30
1716;DHT22;855;48.824;9.220;2023-03-01T03:43:01;1.20;80.50
1716;DHT22;855;48.824;9.220;2023-03-01T03:45:28;1.30;80.40
1716;DHT22;855;48.824;9.220;2023-03-01T03:47:54;1.40;79.90
1716;DHT22;855;48.824;9.220;2023-03-01T03:50:23;1.40;79.60
1716;DHT22;855;48.824;9.220;2023-03-01T03:52:49;1.40;79.60
1716;DHT22;855;48.824;9.220;2023-03-01T03:55:16;1.40;79.60
1716;DHT22;855;48.824;9.220;2023-03-01T03:57:45;1.40;79.50
1716;DHT22;855;48.824;9.220;2023-03-01T04:00:18;1.40;79.50
1716;DHT22;855;48.824;9.220;2023-03-01T04:02:46;1.40;79.60
1716;DHT22;855;48.824;9.220;2023-03-01T04:05:15;1.40;79.90
1716;DHT22;855;48.824;9.220;2023-03-01T04:07:44;1.40;79.90
1716;DHT22;855;48.824;9.220;2023-03-01T04:10:15;1.40;79.50
1716;DHT22;855;48.824;9.220;2023-03-01T04:12:42;1.40;79.20
1716;DHT22;855;48.824;9.220;2023-03-01T04:15:10;1.40;79.50
1716;DHT22;855;48.824;9.220;2023-03-01T04:17:39;1.40;80.00
1716;DHT22;855;48.824;9.220;2023-03-01T04:20:08;1.40;79.50
1716;DHT22;855;48.824;9.220;2023-03-01T04:22:36;1.30;79.70
1716;DHT22;855;48.824;9.220;2023-03-01T04:25:05;1.30;79.90
1716;DHT22;855;48.824;9.220;2023-03-01T04:27:33;1.30;79.70
1716;DHT22;855;48.824;9.220;2023-03-01T04:30:00;1.30;79.90
1716;DHT22;855;48.824;9.220;2023-03-01T04:32:27;1.20;80.30
1716;DHT22;855;48.824;9.220;2023-03-01T04:34:54;1.30;80.10
1716;DHT22;855;48.824;9.220;2023-03-01T04:37:20;1.30;80.10
1716;DHT22;855;48.824;9.220;2023-03-01T04:39:47;1.40;79.90
1716;DHT22;855;48.824;9.220;2023-03-01T04:42:15;1.40;79.90
1716;DHT22;855;48.824;9.220;2023-03-01T04:44:43;1.40;79.60
1716;DHT22;855;48.824;9.220;2023-03-01T04:47:10;1.50;79.50
1716;DHT22;855;48.824;9.220;2023-03-01T04:49:37;1.50;79.10
1716;DHT22;855;48.824;9.220;2023-03-01T04:52:04;1.50;79.20
1716;DHT22;855;48.824;9.220;2023-03-01T04:54:32;1.50;79.20
1716;DHT22;855;48.824;9.220;2023-03-01T04:56:59;1.50;79.10
1716;DHT22;855;48.824;9.220;2023-03-01T04:59:27;1.60;79.20
1716;DHT22;855;48.824;9.220;2023-03-01T05:01:55;1.60;79.00
1716;DHT22;855;48.824;9.220;2023-03-01T05:04:22;1.60;78.70
1716;DHT22;855;48.824;9.220;2023-03-01T05:06:49;1.70;79.10
1716;DHT22;855;48.824;9.220;2023-03-01T05:09:16;1.80;79.00
1716;DHT22;855;48.824;9.220;2023-03-01T05:11:43;2.00;78.60
1716;DHT22;855;48.824;9.220;2023-03-01T05:14:10;2.10;77.90
1716;DHT22;855;48.824;9.220;2023-03-01T05:16:38;2.20;77.60
1716;DHT22;855;48.824;9.220;2023-03-01T05:19:05;2.40;77.10
1716;DHT22;855;48.824;9.220;2023-03-01T05:21:37;2.40;75.80
1716;DHT22;855;48.824;9.220;2023-03-01T05:24:24;2.30;76.00
1716;DHT22;855;48.824;9.220;2023-03-01T05:26:51;2.20;76.20
1716;DHT22;855;48.824;9.220;2023-03-01T05:29:18;2.20;76.20
1716;DHT22;855;48.824;9.220;2023-03-01T05:31:52;2.40;76.00
1716;DHT22;855;48.824;9.220;2023-03-01T05:34:23;2.30;75.80
1716;DHT22;855;48.824;9.220;2023-03-01T05:36:51;2.30;76.00
1716;DHT22;855;48.824;9.220;2023-03-01T05:39:19;2.30;76.00
1716;DHT22;855;48.824;9.220;2023-03-01T05:41:47;2.30;76.20
1716;DHT22;855;48.824;9.220;2023-03-01T05:44:14;2.40;76.00
1716;DHT22;855;48.824;9.220;2023-03-01T05:46:41;2.60;75.50
1716;DHT22;855;48.824;9.220;2023-03-01T05:49:09;2.60;74.90
1716;DHT22;855;48.824;9.220;2023-03-01T05:51:36;2.50;75.00
1716;DHT22;855;48.824;9.220;2023-03-01T05:54:03;2.50;74.70
1716;DHT22;855;48.824;9.220;2023-03-01T05:56:32;2.60;75.00
1716;DHT22;855;48.824;9.220;2023-03-01T05:59:00;2.60;74.90
1716;DHT22;855;48.824;9.220;2023-03-01T06:01:27;2.70;74.90
1716;DHT22;855;48.824;9.220;2023-03-01T06:03:54;2.60;74.60
1716;DHT22;855;48.824;9.220;2023-03-01T06:06:23;2.70;74.70
1716;DHT22;855;48.824;9.220;2023-03-01T06:08:50;2.70;74.60
1716;DHT22;855;48.824;9.220;2023-03-01T06:11:17;2.60;74.30
1716;DHT22;855;48.824;9.220;2023-03-01T06:13:44;2.50;74.60
1716;DHT22;855;48.824;9.220;2023-03-01T06:16:11;2.40;75.40
1716;DHT22;855;48.824;9.220;2023-03-01T06:18:39;2.40;75.30
1716;DHT22;855;48.824;9.220;2023-03-01T06:21:06;2.30;75.60
1716;DHT22;855;48.824;9.220;2023-03-01T06:23:35;2.10;76.00
1716;DHT22;855;48.824;9.220;2023-03-01T06:26:05;2.00;76.60
1716;DHT22;855;48.824;9.220;2023-03-01T06:28:32;2.00;77.20
1716;DHT22;855;48.824;9.220;2023-03-01T06:30:59;2.00;77.40
1716;DHT22;855;48.824;9.220;2023-03-01T06:33:26;2.00;77.10
1716;DHT22;855;48.824;9.220;2023-03-01T06:35:54;1.90;77.50
1716;DHT22;855;48.824;9.220;2023-03-01T06:38:21;1.90;77.60
1716;DHT22;855;48.824;9.220;2023-03-01T06:40:53;1.90;77.80
1716;DHT22;855;48.824;9.220;2023-03-01T06:43:21;1.90;78.00
1716;DHT22;855;48.824;9.220;2023-03-01T06:45:49;2.00;78.20
1716;DHT22;855;48.824;9.220;2023-03-01T06:48:15;1.90;78.40
1716;DHT22;855;48.824;9.220;2023-03-01T06:50:42;2.00;78.60
1716;DHT22;855;48.824;9.220;2023-03-01T06:53:09;2.00;77.90
1716;DHT22;855;48.824;9.220;2023-03-01T06:55:36;2.10;77.20
1716;DHT22;855;48.824;9.220;2023-03-01T06:58:04;2.00;77.60
1716;DHT22;855;48.824;9.220;2023-03-01T07:00:31;2.00;77.50
1716;DHT22;855;48.824;9.220;2023-03-01T07:02:59;1.90;77.80
1716;DHT22;855;48.824;9.220;2023-03-01T07:05:27;1.90;78.00
1716;DHT22;855;48.824;9.220;2023-03-01T07:07:54;1.70;78.60
1716;DHT22;855;48.824;9.220;2023-03-01T07:10:22;1.80;78.80
1716;DHT22;855;48.824;9.220;2023-03-01T07:12:48;1.80;78.40
1716;DHT22;855;48.824;9.220;2023-03-01T07:15:17;1.90;78.20
1716;DHT22;855;48.824;9.220;2023-03-01T07:17:43;1.90;77.90
1716;DHT22;855;48.824;9.220;2023-03-01T07:20:13;2.00;77.80
1716;DHT22;855;48.824;9.220;2023-03-01T07:22:40;1.70;77.60
1716;DHT22;855;48.824;9.220;2023-03-01T07:25:08;1.60;78.00
1716;DHT22;855;48.824;9.220;2023-03-01T07:27:35;1.50;78.70
1716;DHT22;855;48.824;9.220;2023-03-01T07:30:03;1.70;78.40
1716;DHT22;855;48.824;9.220;2023-03-01T07:32:31;1.60;78.00
1716;DHT22;855;48.824;9.220;2023-03-01T07:34:58;1.60;78.20
1716;DHT22;855;48.824;9.220;2023-03-01T07:37:25;1.50;78.00
1716;DHT22;855;48.824;9.220;2023-03-01T07:39:52;1.50;78.00
1716;DHT22;855;48.824;9.220;2023-03-01T07:42:19;1.50;78.00
1716;DHT22;855;48.824;9.220;2023-03-01T07:44:46;1.60;78.20
1716;DHT22;855;48.824;9.220;2023-03-01T07:47:12;1.60;77.80
1716;DHT22;855;48.824;9.220;2023-03-01T07:49:41;1.60;77.80
1716;DHT22;855;48.824;9.220;2023-03-01T07:52:11;1.60;78.00
1716;DHT22;855;48.824;9.220;2023-03-01T07:54:38;1.60;78.20
1716;DHT22;855;48.824;9.220;2023-03-01T07:57:04;1.60;78.20
1716;DHT22;855;48.824;9.220;2023-03-01T07:59:31;1.80;78.30
1716;DHT22;855;48.824;9.220;2023-03-01T08:01:59;1.90;77.20
1716;DHT22;855;48.824;9.220;2023-03-01T08:04:26;1.90;77.20
1716;DHT22;855;48.824;9.220;2023-03-01T08:06:55;2.10;76.60
1716;DHT22;855;48.824;9.220;2023-03-01T08:09:22;2.20;76.20
1716;DHT22;855;48.824;9.220;2023-03-01T08:11:49;2.40;75.80
1716;DHT22;855;48.824;9.220;2023-03-01T08:14:15;2.30;75.40
1716;DHT22;855;48.824;9.220;2023-03-01T08:16:42;2.30;75.00
1716;DHT22;855;48.824;9.220;2023-03-01T08:19:11;2.40;75.00
1716;DHT22;855;48.824;9.220;2023-03-01T08:21:38;2.50;74.20
1716;DHT22;855;48.824;9.220;2023-03-01T08:24:07;2.40;74.30
1716;DHT22;855;48.824;9.220;2023-03-01T08:26:36;2.50;74.90
1716;DHT22;855;48.824;9.220;2023-03-01T08:29:03;2.70;74.30
1716;DHT22;855;48.824;9.220;2023-03-01T08:31:32;2.70;73.40
1716;DHT22;855;48.824;9.220;2023-03-01T08:34:02;2.60;73.70
1716;DHT22;855;48.824;9.220;2023-03-01T08:36:31;2.70;74.30
1716;DHT22;855;48.824;9.220;2023-03-01T08:38:58;2.80;72.90
1716;DHT22;855;48.824;9.220;2023-03-01T08:41:27;2.90;72.30
1716;DHT22;855;48.824;9.220;2023-03-01T08:43:54;3.00;72.30
1716;DHT22;855;48.824;9.220;2023-03-01T08:46:24;3.30;72.10
1716;DHT22;855;48.824;9.220;2023-03-01T08:48:51;3.30;71.30
1716;DHT22;855;48.824;9.220;2023-03-01T08:51:19;3.00;70.80
1716;DHT22;855;48.824;9.220;2023-03-01T08:53:46;2.90;71.90
1716;DHT22;855;48.824;9.220;2023-03-01T08:56:14;3.00;72.20
1716;DHT22;855;48.824;9.220;2023-03-01T08:58:45;3.00;71.90
1716;DHT22;855;48.824;9.220;2023-03-01T09:01:14;3.10;71.90
1716;DHT22;855;48.824;9.220;2023-03-01T09:03:42;3.10;71.90
1716;DHT22;855;48.824;9.220;2023-03-01T09:06:09;3.20;71.70
1716;DHT22;855;48.824;9.220;2023-03-01T09:08:37;3.40;71.20
1716;DHT22;855;48.824;9.220;2023-03-01T09:11:06;3.50;70.60
1716;DHT22;855;48.824;9.220;2023-03-01T09:13:34;3.60;70.50
1716;DHT22;855;48.824;9.220;2023-03-01T09:16:04;3.80;69.80
1716;DHT22;855;48.824;9.220;2023-03-01T09:18:31;3.70;68.90
1716;DHT22;855;48.824;9.220;2023-03-01T09:21:02;3.70;70.00
1716;DHT22;855;48.824;9.220;2023-03-01T09:23:33;3.60;69.70
1716;DHT22;855;48.824;9.220;2023-03-01T09:26:02;3.80;69.40
1716;DHT22;855;48.824;9.220;2023-03-01T09:28:29;3.70;69.60
1716;DHT22;855;48.824;9.220;2023-03-01T09:30:58;3.70;69.70
1716;DHT22;855;48.824;9.220;2023-03-01T09:33:28;3.80;69.40
1716;DHT22;855;48.824;9.220;2023-03-01T09:35:58;3.90;69.30
1716;DHT22;855;48.824;9.220;2023-03-01T09:38:25;4.00;68.50
1716;DHT22;855;48.824;9.220;2023-03-01T09:40:52;4.00;68.10
1716;DHT22;855;48.824;9.220;2023-03-01T09:43:25;4.10;68.10
1716;DHT22;855;48.824;9.220;2023-03-01T09:45:54;4.10;68.60
1716;DHT22;855;48.824;9.220;2023-03-01T09:48:26;4.30;68.00
1716;DHT22;855;48.824;9.220;2023-03-01T09:50:55;4.40;67.10
1716;DHT22;855;48.824;9.220;2023-03-01T09:53:26;4.30;66.50
1716;DHT22;855;48.824;9.220;2023-03-01T09:56:00;4.50;66.70
1716;DHT22;855;48.824;9.220;2023-03-01T09:58:34;4.50;66.70
1716;DHT22;855;48.824;9.220;2023-03-01T10:01:17;4.50;66.70
1716;DHT22;855;48.824;9.220;2023-03-01T10:04:00;4.60;66.50
1716;DHT22;855;48.824;9.220;2023-03-01T10:06:30;4.80;65.70
1716;DHT22;855;48.824;9.220;2023-03-01T10:08:59;4.80;65.90
1716;DHT22;855;48.824;9.220;2023-03-01T10:11:30;4.80;65.10
1716;DHT22;855;48.824;9.220;2023-03-01T10:14:01;4.60;66.00
1716;DHT22;855;48.824;9.220;2023-03-01T10:16:38;4.80;65.50
1716;DHT22;855;48.824;9.220;2023-03-01T10:19:14;5.00;65.30
1716;DHT22;855;48.824;9.220;2023-03-01T10:21:45;5.20;65.10
1716;DHT22;855;48.824;9.220;2023-03-01T10:24:14;5.40;63.60
1716;DHT22;855;48.824;9.220;2023-03-01T10:26:48;5.50;63.10
1716;DHT22;855;48.824;9.220;2023-03-01T10:29:18;5.70;62.70
1716;DHT22;855;48.824;9.220;2023-03-01T10:31:48;5.90;62.20
1716;DHT22;855;48.824;9.220;2023-03-01T10:34:17;6.10;62.30
1716;DHT22;855;48.824;9.220;2023-03-01T10:36:48;6.30;61.60
1716;DHT22;855;48.824;9.220;2023-03-01T10:39:19;6.60;60.30
1716;DHT22;855;48.824;9.220;2023-03-01T10:41:55;6.60;58.70
1716;DHT22;855;48.824;9.220;2023-03-01T10:44:40;6.50;58.70
1716;DHT22;855;48.824;9.220;2023-03-01T10:47:14;6.60;60.20
1716;DHT22;855;48.824;9.220;2023-03-01T10:49:52;6.70;58.80
1716;DHT22;855;48.824;9.220;2023-03-01T10:52:23;6.80;58.20
1716;DHT22;855;48.824;9.220;2023-03-01T10:54:54;6.60;57.80
1716;DHT22;855;48.824;9.220;2023-03-01T10:57:33;6.60;58.20
1716;DHT22;855;48.824;9.220;2023-03-01T11:00:15;6.60;57.90
1716;DHT22;855;48.824;9.220;2023-03-01T11:02:48;6.60;58.00
1716;DHT22;855;48.824;9.220;2023-03-01T11:05:25;6.60;58.80
1716;DHT22;855;48.824;9.220;2023-03-01T11:07:56;6.80;57.90
1716;DHT22;855;48.824;9.220;2023-03-01T11:10:25;7.00;57.50
1716;DHT22;855;48.824;9.220;2023-03-01T11:12:52;6.90;57.20
1716;DHT22;855;48.824;9.220;2023-03-01T11:15:22;6.80;57.30
1716;DHT22;855;48.824;9.220;2023-03-01T11:17:50;6.80;57.40
1716;DHT22;855;48.824;9.220;2023-03-01T11:20:25;7.00;57.50
1716;DHT22;855;48.824;9.220;2023-03-01T11:22:55;7.10;57.40
1716;DHT22;855;48.824;9.220;2023-03-01T11:25:25;7.40;57.40
1716;DHT22;855;48.824;9.220;2023-03-01T11:27:54;7.20;57.00
1716;DHT22;855;48.824;9.220;2023-03-01T11:30:24;7.10;57.50
1716;DHT22;855;48.824;9.220;2023-03-01T11:33:03;7.30;56.90
1716;DHT22;855;48.824;9.220;2023-03-01T11:35:32;7.10;57.20
1716;DHT22;855;48.824;9.220;2023-03-01T11:38:16;7.20;56.80
1716;DHT22;855;48.824;9.220;2023-03-01T11:40:47;7.20;56.90
1716;DHT22;855;48.824;9.220;2023-03-01T11:43:21;7.30;57.50
1716;DHT22;855;48.824;9.220;2023-03-01T11:48:48;7.50;56.70
1716;DHT22;855;48.824;9.220;2023-03-01T11:51:23;7.50;56.70
1716;DHT22;855;48.824;9.220;2023-03-01T11:53:59;7.60;56.30
1716;DHT22;855;48.824;9.220;2023-03-01T11:56:32;7.60;55.50
1716;DHT22;855;48.824;9.220;2023-03-01T11:59:22;7.70;56.20
1716;DHT22;855;48.824;9.220;2023-03-01T12:02:16;7.70;55.90
1716;DHT22;855;48.824;9.220;2023-03-01T12:05:17;7.80;55.80
1716;DHT22;855;48.824;9.220;2023-03-01T12:07:52;7.50;55.50
1716;DHT22;855;48.824;9.220;2023-03-01T12:10:25;7.50;56.30
1716;DHT22;855;48.824;9.220;2023-03-01T12:13:13;7.60;56.40
1716;DHT22;855;48.824;9.220;2023-03-01T12:15:57;7.70;56.30
1716;DHT22;855;48.824;9.220;2023-03-01T12:18:44;8.10;55.90
1716;DHT22;855;48.824;9.220;2023-03-01T12:21:23;8.20;55.20
1716;DHT22;855;48.824;9.220;2023-03-01T12:24:21;8.40;55.00
1716;DHT22;855;48.824;9.220;2023-03-01T12:26:59;8.30;54.20
1716;DHT22;855;48.824;9.220;2023-03-01T12:29:32;8.40;54.20
1716;DHT22;855;48.824;9.220;2023-03-01T12:32:14;8.30;54.80
1716;DHT22;855;48.824;9.220;2023-03-01T12:34:57;8.40;54.40
1716;DHT22;855;48.824;9.220;2023-03-01T12:37:41;8.20;54.20
1716;DHT22;855;48.824;9.220;2023-03-01T12:40:40;8.40;54.80
1716;DHT22;855;48.824;9.220;2023-03-01T12:43:25;8.50;54.20
1716;DHT22;855;48.824;9.220;2023-03-01T12:46:15;8.50;53.90
1716;DHT22;855;48.824;9.220;2023-03-01T12:48:51;8.60;54.20
1716;DHT22;855;48.824;9.220;2023-03-01T12:51:24;8.70;54.40
1716;DHT22;855;48.824;9.220;2023-03-01T12:53:54;8.70;53.60
1716;DHT22;855;48.824;9.220;2023-03-01T12:56:24;8.70;53.80
1716;DHT22;855;48.824;9.220;2023-03-01T12:58:59;8.70;53.80
1716;DHT22;855;48.824;9.220;2023-03-01T13:01:36;8.90;53.30
1716;DHT22;855;48.824;9.220;2023-03-01T13:04:18;9.00;52.80
1716;DHT22;855;48.824;9.220;2023-03-01T13:06:57;9.00;52.60
1716;DHT22;855;48.824;9.220;2023-03-01T13:09:31;9.00;53.60
1716;DHT22;855;48.824;9.220;2023-03-01T13:12:01;8.90;53.20
1716;DHT22;855;48.824;9.220;2023-03-01T13:14:44;8.90;53.80
1716;DHT22;855;48.824;9.220;2023-03-01T13:17:40;8.90;53.40
1716;DHT22;855;48.824;9.220;2023-03-01T13:20:16;8.80;52.90
1716;DHT22;855;48.824;9.220;2023-03-01T13:22:45;8.90;53.40
1716;DHT22;855;48.824;9.220;2023-03-01T13:25:16;8.90;53.20
1716;DHT22;855;48.824;9.220;2023-03-01T13:27:44;9.10;53.80
1716;DHT22;855;48.824;9.220;2023-03-01T13:30:41;9.40;52.90
1716;DHT22;855;48.824;9.220;2023-03-01T13:33:45;9.40;52.40
1716;DHT22;855;48.824;9.220;2023-03-01T13:36:45;9.20;52.40
1716;DHT22;855;48.824;9.220;2023-03-01T13:39:28;9.00;53.20
1716;DHT22;855;48.824;9.220;2023-03-01T13:41:58;9.00;53.60
1716;DHT22;855;48.824;9.220;2023-03-01T13:44:30;8.90;53.30
1716;DHT22;855;48.824;9.220;2023-03-01T13:47:06;8.90;53.80
1716;DHT22;855;48.824;9.220;2023-03-01T13:49:42;8.80;53.70
1716;DHT22;855;48.824;9.220;2023-03-01T13:52:30;8.60;54.30
1716;DHT22;855;48.824;9.220;2023-03-01T13:54:59;8.60;54.80
1716;DHT22;855;48.824;9.220;2023-03-01T13:57:32;8.60;54.90
1716;DHT22;855;48.824;9.220;2023-03-01T14:00:00;8.70;54.90
1716;DHT22;855;48.824;9.220;2023-03-01T14:02:29;8.70;54.80
1716;DHT22;855;48.824;9.220;2023-03-01T14:04:57;8.70;54.70
1716;DHT22;855;48.824;9.220;2023-03-01T14:07:25;8.70;54.40
1716;DHT22;855;48.824;9.220;2023-03-01T14:09:56;8.70;55.40
1716;DHT22;855;48.824;9.220;2023-03-01T14:12:34;8.90;55.20
1716;DHT22;855;48.824;9.220;2023-03-01T14:15:15;9.00;55.00
1716;DHT22;855;48.824;9.220;2023-03-01T14:17:51;9.10;55.00
1716;DHT22;855;48.824;9.220;2023-03-01T14:20:22;9.00;54.50
1716;DHT22;855;48.824;9.220;2023-03-01T14:22:52;9.00;54.90
1716;DHT22;855;48.824;9.220;2023-03-01T14:25:23;8.90;54.80
1716;DHT22;855;48.824;9.220;2023-03-01T14:28:00;8.90;54.90
1716;DHT22;855;48.824;9.220;2023-03-01T14:30:31;8.90;54.90
1716;DHT22;855;48.824;9.220;2023-03-01T14:33:02;8.80;55.00
1716;DHT22;855;48.824;9.220;2023-03-01T14:35:30;8.80;54.90
1716;DHT22;855;48.824;9.220;2023-03-01T14:37:58;8.90;54.80
1716;DHT22;855;48.824;9.220;2023-03-01T14:40:28;9.00;54.70
1716;DHT22;855;48.824;9.220;2023-03-01T14:42:58;9.00;55.00
1716;DHT22;855;48.824;9.220;2023-03-01T14:45:27;9.10;54.50
1716;DHT22;855;48.824;9.220;2023-03-01T14:48:00;9.10;55.00
1716;DHT22;855;48.824;9.220;2023-03-01T14:50:30;8.90;54.80
1716;DHT22;855;48.824;9.220;2023-03-01T14:53:00;9.00;54.90
1716;DHT22;855;48.824;9.220;2023-03-01T14:55:31;9.00;55.00
1716;DHT22;855;48.824;9.220;2023-03-01T14:58:03;9.10;55.20
1716;DHT22;855;48.824;9.220;2023-03-01T15:00:32;9.10;54.80
1716;DHT22;855;48.824;9.220;2023-03-01T15:03:06;9.20;55.20
1716;DHT22;855;48.824;9.220;2023-03-01T15:05:40;9.20;54.70
1716;DHT22;855;48.824;9.220;2023-03-01T15:08:07;9.20;54.70
1716;DHT22;855;48.824;9.220;2023-03-01T15:10:56;9.20;54.40
1716;DHT22;855;48.824;9.220;2023-03-01T15:13:25;9.00;54.80
1716;DHT22;855;48.824;9.220;2023-03-01T15:15:53;9.00;54.80
1716;DHT22;855;48.824;9.220;2023-03-01T15:18:29;9.00;55.20
1716;DHT22;855;48.824;9.220;2023-03-01T15:21:05;9.10;55.50
1716;DHT22;855;48.824;9.220;2023-03-01T15:23:34;9.30;55.00
1716;DHT22;855;48.824;9.220;2023-03-01T15:26:03;9.30;54.30
1716;DHT22;855;48.824;9.220;2023-03-01T15:28:32;9.10;54.30
1716;DHT22;855;48.824;9.220;2023-03-01T15:31:03;9.00;54.80
1716;DHT22;855;48.824;9.220;2023-03-01T15:33:35;8.90;55.40
1716;DHT22;855;48.824;9.220;2023-03-01T15:38:53;8.90;54.80
1716;DHT22;855;48.824;9.220;2023-03-01T15:41:25;8.80;55.30
1716;DHT22;855;48.824;9.220;2023-03-01T15:43:54;8.80;55.30
1716;DHT22;855;48.824;9.220;2023-03-01T15:46:27;8.90;55.30
1716;DHT22;855;48.824;9.220;2023-03-01T15:48:57;8.90;54.30
1716;DHT22;855;48.824;9.220;2023-03-01T15:51:34;9.00;54.30
1716;DHT22;855;48.824;9.220;2023-03-01T15:54:05;8.80;54.40
1716;DHT22;855;48.824;9.220;2023-03-01T15:56:32;8.60;54.70
1716;DHT22;855;48.824;9.220;2023-03-01T15:59:01;8.70;55.00
1716;DHT22;855;48.824;9.220;2023-03-01T16:01:28;8.80;54.90
1716;DHT22;855;48.824;9.220;2023-03-01T16:03:56;8.70;54.50
1716;DHT22;855;48.824;9.220;2023-03-01T16:06:24;8.70;54.50
1716;DHT22;855;48.824;9.220;2023-03-01T16:08:51;8.60;55.00
1716;DHT22;855;48.824;9.220;2023-03-01T16:11:19;8.70;55.00
1716;DHT22;855;48.824;9.220;2023-03-01T16:13:46;8.70;54.80
1716;DHT22;855;48.824;9.220;2023-03-01T16:16:14;8.60;55.00
1716;DHT22;855;48.824;9.220;2023-03-01T16:18:42;8.60;55.50
1716;DHT22;855;48.824;9.220;2023-03-01T16:21:17;8.70;55.40
1716;DHT22;855;48.824;9.220;2023-03-01T16:23:45;8.70;55.30
1716;DHT22;855;48.824;9.220;2023-03-01T16:26:12;8.80;54.90
1716;DHT22;855;48.824;9.220;2023-03-01T16:28:39;8.70;54.80
1716;DHT22;855;48.824;9.220;2023-03-01T16:31:06;8.60;54.90
1716;DHT22;855;48.824;9.220;2023-03-01T16:33:33;8.50;55.40
1716;DHT22;855;48.824;9.220;2023-03-01T16:36:00;8.60;55.50
1716;DHT22;855;48.824;9.220;2023-03-01T16:38:31;8.80;55.30
1716;DHT22;855;48.824;9.220;2023-03-01T16:40:58;8.70;54.50
1716;DHT22;855;48.824;9.220;2023-03-01T16:43:24;8.60;54.40
1716;DHT22;855;48.824;9.220;2023-03-01T16:45:51;8.60;54.90
1716;DHT22;855;48.824;9.220;2023-03-01T16:48:18;8.60;55.50
1716;DHT22;855;48.824;9.220;2023-03-01T16:50:45;8.60;55.70
1716;DHT22;855;48.824;9.220;2023-03-01T16:53:11;8.50;56.20
1716;DHT22;855;48.824;9.220;2023-03-01T16:55:40;8.50;56.30
1716;DHT22;855;48.824;9.220;2023-03-01T16:58:10;8.40;56.30
1716;DHT22;855;48.824;9.220;2023-03-01T17:00:37;8.30;56.50
1716;DHT22;855;48.824;9.220;2023-03-01T17:03:04;8.30;56.70
1716;DHT22;855;48.824;9.220;2023-03-01T17:05:31;8.30;56.90
1716;DHT22;855;48.824;9.220;2023-03-01T17:07:58;8.20;57.00